Collingwood, Canada
Current Conditions -  °F | °C
As of 4:00 PM on Friday 19 Dec 2014 (Local Time) from CYBN Reporting Station
Overcast Overcast  
Wind Chill: 17°   Ceiling: 1600
Heat Index: 27°   Visibility: 9mi
Dew Point: 21°   Wind: 9mph
Humidity: 80%   Direction: 330°NNW
Pressure: 30.2"   Gusts: 18mph
Location:  44.5°N, 80.22°W
Report Text: CYBN 192100Z AUTO 33008G16KT 280V360 9SM BKN016 OVC066 OVC079OVC087 M03/M06 A3020 RMK SLP239
Loading
Personal Weather Stations






























Interactive Weather Map New forecast layout! Learn more

10-Day Weather Forecast

Advertisements
Track Severe Weather on mobile